Overview Statistics Trail Chart Weather Telemetry Raw packets
 

This is the latest recevied weather packets stored in our database for station/object KD8DNO-13. If no packets are shown the sender has not sent any weather packets the latest 10 day(s).

<< 26 27 28 29 30 31 32 >>
Time Temp. Humidity Pressure Rain* Wind** Luminosity Snow
1788378483 33.33° C 57% 1018.6 hPa 0 mm - - -
1788378183 31.67° C 64% 1018.6 hPa 0 mm - - -
1788377883 33.33° C 56% 1018.6 hPa 0 mm - - -
1788377583 33.89° C 56% 1018.6 hPa 0 mm - - -
1788377283 33.89° C 59% 1018.6 hPa 0 mm - - -
1788376983 32.78° C 64% 1018.9 hPa 0 mm - - -
1788376683 31.67° C 64% 1018.9 hPa 0 mm - - -
1788376383 31.67° C 64% 1018.9 hPa 0 mm - - -
1788376083 30.56° C 70% 1018.9 hPa 0 mm - - -
1788375783 30° C 73% 1018.9 hPa 0 mm - - -
1788375483 31.11° C 66% 1018.9 hPa 0 mm - - -
1788375183 31.11° C 63% 1018.9 hPa 0 mm - - -
1788374883 31.11° C 65% 1018.9 hPa 0 mm - - -
1788374583 31.67° C 62% 1018.9 hPa 0 mm - - -
1788374283 31.67° C 61% 1019.3 hPa 0 mm - - -
1788373983 31.67° C 62% 1019.3 hPa 0 mm - - -
1788373683 32.22° C 60% 1019.3 hPa 0 mm - - -
1788373383 32.78° C 58% 1019.3 hPa 0 mm - - -
1788373083 33.33° C 57% 1019.3 hPa 0 mm - - -
1788372783 33.33° C 60% 1019.6 hPa 0 mm - - -
1788372483 33.33° C 57% 1019.6 hPa 0 mm - - -
1788372183 32.78° C 58% 1019.6 hPa 0 mm - - -
1788371884 32.78° C 59% 1019.6 hPa 0 mm - - -
1788371583 32.78° C 60% 1019.6 hPa 0 mm - - -
1788371283 32.22° C 62% 1019.9 hPa 0 mm - - -

* Rain latest hour (hover to see other rain measurements)
** Current wind speed in m/s (hover to see current wind gust speed)